createdAt,value
2023-11-13T10:45:15.917Z,188.00
2023-11-13T10:45:16.908Z,182.00
2023-11-13T10:45:17.892Z,180.00
2023-11-13T10:45:18.913Z,189.00
2023-11-13T10:45:19.902Z,181.00
2023-11-13T10:45:20.894Z,180.00
2023-11-13T10:45:21.926Z,188.00
2023-11-13T10:45:22.906Z,183.00
2023-11-13T10:45:23.895Z,187.00
2023-11-13T10:45:24.919Z,188.00
2023-11-13T10:45:25.907Z,179.00
2023-11-13T10:45:26.904Z,182.00
2023-11-13T10:45:27.918Z,188.00
2023-11-13T10:45:28.909Z,187.00
2023-11-13T10:45:29.896Z,186.00
2023-11-13T10:45:30.888Z,187.00
2023-11-13T10:45:31.914Z,188.00
2023-11-13T10:45:32.895Z,187.00
2023-11-13T10:45:33.886Z,180.00
2023-11-13T10:45:34.907Z,184.00
2023-11-13T10:45:35.895Z,189.00
2023-11-13T10:45:36.882Z,183.00
2023-11-13T10:45:37.876Z,187.00
2023-11-13T10:45:38.898Z,180.00
2023-11-13T10:45:39.891Z,188.00
2023-11-13T10:45:40.875Z,187.00
2023-11-13T10:45:41.898Z,181.00
2023-11-13T10:45:42.885Z,187.00
2023-11-13T10:45:43.876Z,184.00
2023-11-13T10:45:44.905Z,187.00
2023-11-13T10:45:45.886Z,182.00
2023-11-13T10:45:46.876Z,184.00
2023-11-13T10:45:47.899Z,186.00
2023-11-13T10:45:48.926Z,180.00
2023-11-13T10:45:49.875Z,184.00
2023-11-13T10:45:50.864Z,180.00
2023-11-13T10:45:51.888Z,185.00
2023-11-13T10:45:52.875Z,180.00
2023-11-13T10:45:53.873Z,179.00
2023-11-13T10:45:54.895Z,179.00
2023-11-13T10:45:55.878Z,183.00
2023-11-13T10:45:56.865Z,187.00
2023-11-13T10:45:57.854Z,187.00
2023-11-13T10:45:58.878Z,188.00
2023-11-13T10:45:59.866Z,187.00
2023-11-13T10:46:00.856Z,180.00
2023-11-13T10:46:01.877Z,180.00
2023-11-13T10:46:02.874Z,179.00
2023-11-13T10:46:03.856Z,187.00
2023-11-13T10:46:04.879Z,179.00
2023-11-13T10:46:05.865Z,187.00
2023-11-13T10:46:06.856Z,182.00
2023-11-13T10:46:07.854Z,188.00
2023-11-13T10:46:08.875Z,180.00
2023-11-13T10:46:09.855Z,183.00
2023-11-13T10:46:10.854Z,188.00
2023-11-13T10:46:11.867Z,188.00
2023-11-13T10:46:12.858Z,181.00
2023-11-13T10:46:13.846Z,179.00
2023-11-13T10:46:14.834Z,183.00
2023-11-13T10:46:15.859Z,182.00
2023-11-13T10:46:16.846Z,181.00
2023-11-13T10:46:17.869Z,181.00
2023-11-13T10:46:18.887Z,190.00
2023-11-13T10:46:19.846Z,188.00
2023-11-13T10:46:20.836Z,179.00
2023-11-13T10:46:21.859Z,187.00
2023-11-13T10:46:22.847Z,187.00
2023-11-13T10:46:23.842Z,180.00
2023-11-13T10:46:24.825Z,179.00
2023-11-13T10:46:25.848Z,185.00
2023-11-13T10:46:26.833Z,180.00
2023-11-13T10:46:27.827Z,179.00
2023-11-13T10:46:28.849Z,180.00
2023-11-13T10:46:29.845Z,186.00
2023-11-13T10:46:30.827Z,179.00
2023-11-13T10:46:31.848Z,188.00
2023-11-13T10:46:32.836Z,180.00
2023-11-13T10:46:33.860Z,182.00
2023-11-13T10:46:34.814Z,182.00
2023-11-13T10:46:35.839Z,186.00
2023-11-13T10:46:36.850Z,180.00
2023-11-13T10:46:37.815Z,187.00
2023-11-13T10:46:38.838Z,186.00
2023-11-13T10:46:39.825Z,188.00
2023-11-13T10:46:40.815Z,183.00
2023-11-13T10:46:41.837Z,179.00
2023-11-13T10:46:42.826Z,185.00
2023-11-13T10:46:43.815Z,188.00
2023-11-13T10:46:44.838Z,183.00
2023-11-13T10:46:45.827Z,187.00
2023-11-13T10:46:46.814Z,188.00
2023-11-13T10:46:47.845Z,179.00
2023-11-13T10:46:48.826Z,188.00
2023-11-13T10:46:49.817Z,189.00
2023-11-13T10:46:50.806Z,179.00
2023-11-13T10:46:51.828Z,179.00
2023-11-13T10:46:52.816Z,187.00
2023-11-13T10:46:53.838Z,188.00
2023-11-13T10:46:54.827Z,188.00
2023-11-13T10:46:55.817Z,180.00
2023-11-13T10:46:56.803Z,183.00
2023-11-13T10:46:57.828Z,188.00
2023-11-13T10:46:58.817Z,179.00
2023-11-13T10:46:59.806Z,179.00
2023-11-13T10:47:00.828Z,187.00
2023-11-13T10:47:01.818Z,183.00
2023-11-13T10:47:02.806Z,182.00
2023-11-13T10:47:03.835Z,179.00
2023-11-13T10:47:04.817Z,179.00
2023-11-13T10:47:05.806Z,179.00
2023-11-13T10:47:06.823Z,179.00
2023-11-13T10:47:07.818Z,180.00
2023-11-13T10:47:08.840Z,181.00
2023-11-13T10:47:09.828Z,187.00
2023-11-13T10:47:10.816Z,181.00
2023-11-13T10:47:11.839Z,184.00
2023-11-13T10:47:12.859Z,187.00
2023-11-13T10:47:13.814Z,180.00
2023-11-13T10:47:14.807Z,181.00
2023-11-13T10:47:15.828Z,187.00
2023-11-13T10:47:16.813Z,180.00
2023-11-13T10:47:17.807Z,181.00
2023-11-13T10:47:18.830Z,179.00
2023-11-13T10:47:19.816Z,179.00
2023-11-13T10:47:20.808Z,181.00
2023-11-13T10:47:21.836Z,179.00
2023-11-13T10:47:22.817Z,187.00
2023-11-13T10:47:23.807Z,182.00
2023-11-13T10:47:24.829Z,189.00
2023-11-13T10:47:25.817Z,184.00
2023-11-13T10:47:26.806Z,191.00
2023-11-13T10:47:27.810Z,187.00
2023-11-13T10:47:28.817Z,186.00
2023-11-13T10:47:29.807Z,188.00
2023-11-13T10:47:30.796Z,181.00
2023-11-13T10:47:31.819Z,187.00
2023-11-13T10:47:32.807Z,182.00
2023-11-13T10:47:33.796Z,184.00
2023-11-13T10:47:34.818Z,188.00
2023-11-13T10:47:35.814Z,187.00
2023-11-13T10:47:36.794Z,187.00
2023-11-13T10:47:37.820Z,188.00
2023-11-13T10:47:38.832Z,188.00
2023-11-13T10:47:39.796Z,180.00
2023-11-13T10:47:40.819Z,180.00
2023-11-13T10:47:41.840Z,187.00
2023-11-13T10:47:42.812Z,189.00
2023-11-13T10:47:43.820Z,188.00
2023-11-13T10:47:44.812Z,182.00
2023-11-13T10:47:45.798Z,179.00
2023-11-13T10:47:46.820Z,184.00
2023-11-13T10:47:47.808Z,189.00
2023-11-13T10:47:48.797Z,180.00
2023-11-13T10:47:49.819Z,181.00
2023-11-13T10:47:50.809Z,180.00
2023-11-13T10:47:51.797Z,186.00
2023-11-13T10:47:52.819Z,187.00
2023-11-13T10:47:53.808Z,184.00
2023-11-13T10:47:54.797Z,182.00
2023-11-13T10:47:55.824Z,183.00
2023-11-13T10:47:56.806Z,180.00
2023-11-13T10:47:57.830Z,186.00
2023-11-13T10:47:58.819Z,180.00
2023-11-13T10:47:59.809Z,187.00
2023-11-13T10:48:00.831Z,180.00
2023-11-13T10:48:01.819Z,180.00
2023-11-13T10:48:02.808Z,180.00
2023-11-13T10:48:03.797Z,178.00
2023-11-13T10:48:04.819Z,182.00
2023-11-13T10:48:05.809Z,187.00
2023-11-13T10:48:06.795Z,186.00
2023-11-13T10:48:07.820Z,183.00
2023-11-13T10:48:08.808Z,179.00
2023-11-13T10:48:09.797Z,181.00
2023-11-13T10:48:10.827Z,187.00
2023-11-13T10:48:11.808Z,185.00
2023-11-13T10:48:12.799Z,185.00
2023-11-13T10:48:13.820Z,182.00
2023-11-13T10:48:14.809Z,180.00
2023-11-13T10:48:15.799Z,187.00
2023-11-13T10:48:16.820Z,187.00
2023-11-13T10:48:17.809Z,187.00
2023-11-13T10:48:18.839Z,187.00
2023-11-13T10:48:19.818Z,187.00
2023-11-13T10:48:20.810Z,186.00
2023-11-13T10:48:21.799Z,187.00
2023-11-13T10:48:22.788Z,181.00
2023-11-13T10:48:23.809Z,184.00
2023-11-13T10:48:24.798Z,180.00
2023-11-13T10:48:25.788Z,189.00
2023-11-13T10:48:26.807Z,180.00
2023-11-13T10:48:27.799Z,179.00
2023-11-13T10:48:28.788Z,180.00
2023-11-13T10:48:29.807Z,181.00
2023-11-13T10:48:30.799Z,187.00
2023-11-13T10:48:31.823Z,187.00
2023-11-13T10:48:32.848Z,188.00
2023-11-13T10:48:33.797Z,179.00
2023-11-13T10:48:34.821Z,187.00
2023-11-13T10:48:35.809Z,182.00
2023-11-13T10:48:36.840Z,179.00
2023-11-13T10:48:37.787Z,187.00
2023-11-13T10:48:38.810Z,188.00
2023-11-13T10:48:39.800Z,180.00
2023-11-13T10:48:40.796Z,182.00
2023-11-13T10:48:41.817Z,180.00
2023-11-13T10:48:42.800Z,181.00
2023-11-13T10:48:43.788Z,187.00
2023-11-13T10:48:44.777Z,179.00
2023-11-13T10:48:45.801Z,180.00
2023-11-13T10:48:46.790Z,181.00
2023-11-13T10:48:47.785Z,189.00
2023-11-13T10:48:48.807Z,187.00
2023-11-13T10:48:49.788Z,187.00
2023-11-13T10:48:50.778Z,187.00
2023-11-13T10:48:51.800Z,180.00
2023-11-13T10:48:52.789Z,182.00
2023-11-13T10:48:53.777Z,188.00
2023-11-13T10:48:54.800Z,180.00
2023-11-13T10:48:55.790Z,181.00
2023-11-13T10:48:56.779Z,188.00
2023-11-13T10:48:57.800Z,178.00
2023-11-13T10:48:58.789Z,188.00
2023-11-13T10:48:59.778Z,180.00
2023-11-13T10:49:00.801Z,188.00
2023-11-13T10:49:01.789Z,187.00
2023-11-13T10:49:02.778Z,178.00
2023-11-13T10:49:03.768Z,182.00
2023-11-13T10:49:04.790Z,188.00
2023-11-13T10:49:05.779Z,182.00
2023-11-13T10:49:06.768Z,184.00
2023-11-13T10:49:07.788Z,179.00
2023-11-13T10:49:08.778Z,189.00
2023-11-13T10:49:09.768Z,180.00
2023-11-13T10:49:10.791Z,180.00
2023-11-13T10:49:11.778Z,189.00
2023-11-13T10:49:12.768Z,180.00
2023-11-13T10:49:13.791Z,187.00
2023-11-13T10:49:14.789Z,187.00
2023-11-13T10:49:15.768Z,179.00
2023-11-13T10:49:16.791Z,187.00
2023-11-13T10:49:17.780Z,188.00
2023-11-13T10:49:18.800Z,184.00
2023-11-13T10:49:19.788Z,181.00
2023-11-13T10:49:20.777Z,187.00
2023-11-13T10:49:21.769Z,184.00
2023-11-13T10:49:22.759Z,180.00
2023-11-13T10:49:23.780Z,181.00
2023-11-13T10:49:24.769Z,181.00
2023-11-13T10:49:25.758Z,187.00
2023-11-13T10:49:26.819Z,182.00
2023-11-13T10:49:27.769Z,187.00
2023-11-13T10:49:28.766Z,181.00
2023-11-13T10:49:29.809Z,182.00
2023-11-13T10:49:30.769Z,182.00
2023-11-13T10:49:31.759Z,181.00
2023-11-13T10:49:32.788Z,178.00
2023-11-13T10:49:33.768Z,187.00
2023-11-13T10:49:34.758Z,181.00
2023-11-13T10:49:35.748Z,181.00
2023-11-13T10:49:36.769Z,183.00
2023-11-13T10:49:37.759Z,188.00
2023-11-13T10:49:38.749Z,179.00
2023-11-13T10:49:39.770Z,188.00
2023-11-13T10:49:40.776Z,181.00
2023-11-13T10:49:41.749Z,179.00
2023-11-13T10:49:42.740Z,180.00
2023-11-13T10:49:43.760Z,179.00
2023-11-13T10:49:44.748Z,180.00
2023-11-13T10:49:45.772Z,179.00
2023-11-13T10:49:46.760Z,181.00
2023-11-13T10:49:47.748Z,179.00
2023-11-13T10:49:48.738Z,184.00
2023-11-13T10:49:49.761Z,179.00
2023-11-13T10:49:50.753Z,180.00
2023-11-13T10:49:51.771Z,180.00
2023-11-13T10:49:52.760Z,178.00
2023-11-13T10:49:53.750Z,179.00
2023-11-13T10:49:54.771Z,187.00
2023-11-13T10:49:55.764Z,179.00
2023-11-13T10:49:56.750Z,179.00
2023-11-13T10:49:57.739Z,184.00
2023-11-13T10:49:58.769Z,187.00
2023-11-13T10:49:59.749Z,188.00
2023-11-13T10:50:00.748Z,184.00
2023-11-13T10:50:01.762Z,188.00
2023-11-13T10:50:02.783Z,180.00
2023-11-13T10:50:03.738Z,189.00
2023-11-13T10:50:04.730Z,187.00
2023-11-13T10:50:05.752Z,188.00
2023-11-13T10:50:06.741Z,185.00
2023-11-13T10:50:07.730Z,185.00
2023-11-13T10:50:08.759Z,187.00
2023-11-13T10:50:09.741Z,184.00
2023-11-13T10:50:10.729Z,182.00
2023-11-13T10:50:11.784Z,186.00
2023-11-13T10:50:12.743Z,187.00
2023-11-13T10:50:13.731Z,179.00
2023-11-13T10:50:14.721Z,179.00
2023-11-13T10:50:15.742Z,179.00
2023-11-13T10:50:16.731Z,180.00
2023-11-13T10:50:17.723Z,178.00
2023-11-13T10:50:18.743Z,179.00
2023-11-13T10:50:19.731Z,179.00
2023-11-13T10:50:20.721Z,181.00
2023-11-13T10:50:21.742Z,182.00
2023-11-13T10:50:22.732Z,179.00
2023-11-13T10:50:23.721Z,184.00
2023-11-13T10:50:24.710Z,179.00
2023-11-13T10:50:25.732Z,187.00
2023-11-13T10:50:26.721Z,180.00
2023-11-13T10:50:27.711Z,181.00
2023-11-13T10:50:28.732Z,188.00
2023-11-13T10:50:29.721Z,187.00
2023-11-13T10:50:30.711Z,180.00
2023-11-13T10:50:31.731Z,178.00
2023-11-13T10:50:32.721Z,183.00
2023-11-13T10:50:33.711Z,185.00
2023-11-13T10:50:34.700Z,190.00
2023-11-13T10:50:35.722Z,179.00
2023-11-13T10:50:36.712Z,184.00
2023-11-13T10:50:37.699Z,187.00
2023-11-13T10:50:38.723Z,184.00
2023-11-13T10:50:39.712Z,184.00
2023-11-13T10:50:40.700Z,182.00
2023-11-13T10:50:41.689Z,178.00
2023-11-13T10:50:42.712Z,183.00
2023-11-13T10:50:43.708Z,184.00
2023-11-13T10:50:44.690Z,181.00
2023-11-13T10:50:45.713Z,187.00
2023-11-13T10:50:46.707Z,186.00
2023-11-13T10:50:47.698Z,187.00
2023-11-13T10:50:48.721Z,186.00
2023-11-13T10:50:49.700Z,187.00
2023-11-13T10:50:50.691Z,188.00
2023-11-13T10:50:51.681Z,183.00
2023-11-13T10:50:52.734Z,183.00
2023-11-13T10:50:53.688Z,188.00
2023-11-13T10:50:54.680Z,180.00
2023-11-13T10:50:55.709Z,180.00
2023-11-13T10:50:56.693Z,182.00
2023-11-13T10:50:57.681Z,188.00
2023-11-13T10:50:58.703Z,187.00
2023-11-13T10:50:59.692Z,180.00
2023-11-13T10:51:00.679Z,180.00
2023-11-13T10:51:01.670Z,179.00
2023-11-13T10:51:02.692Z,180.00
2023-11-13T10:51:03.681Z,180.00
2023-11-13T10:51:04.669Z,179.00
2023-11-13T10:51:05.699Z,187.00
2023-11-13T10:51:06.681Z,180.00
2023-11-13T10:51:07.669Z,182.00
2023-11-13T10:51:08.693Z,189.00
2023-11-13T10:51:09.681Z,180.00
2023-11-13T10:51:10.670Z,187.00
2023-11-13T10:51:11.692Z,183.00
2023-11-13T10:51:12.681Z,187.00
2023-11-13T10:51:13.669Z,187.00
2023-11-13T10:51:14.692Z,182.00
2023-11-13T10:51:15.681Z,180.00
2023-11-13T10:51:16.670Z,187.00
2023-11-13T10:51:17.693Z,181.00
2023-11-13T10:51:18.684Z,183.00
2023-11-13T10:51:19.678Z,181.00
2023-11-13T10:51:20.699Z,180.00
2023-11-13T10:51:21.683Z,180.00
2023-11-13T10:51:22.669Z,187.00
2023-11-13T10:51:23.659Z,183.00
2023-11-13T10:51:24.683Z,187.00
2023-11-13T10:51:25.671Z,187.00
2023-11-13T10:51:26.661Z,183.00
2023-11-13T10:51:27.683Z,180.00
2023-11-13T10:51:28.671Z,181.00
2023-11-13T10:51:29.660Z,188.00
2023-11-13T10:51:30.682Z,183.00
2023-11-13T10:51:31.703Z,179.00
2023-11-13T10:51:32.660Z,180.00
2023-11-13T10:51:33.683Z,186.00
2023-11-13T10:51:34.670Z,183.00
2023-11-13T10:51:35.662Z,180.00
2023-11-13T10:51:36.650Z,182.00
2023-11-13T10:51:37.672Z,188.00
2023-11-13T10:51:38.692Z,180.00
2023-11-13T10:51:39.647Z,180.00
2023-11-13T10:51:40.679Z,182.00
2023-11-13T10:51:41.661Z,187.00
2023-11-13T10:51:42.651Z,187.00
2023-11-13T10:51:43.673Z,186.00
2023-11-13T10:51:44.662Z,181.00
2023-11-13T10:51:45.651Z,180.00
2023-11-13T10:51:46.638Z,188.00
2023-11-13T10:51:47.693Z,180.00
2023-11-13T10:51:48.649Z,187.00
2023-11-13T10:51:49.641Z,180.00
2023-11-13T10:51:50.662Z,182.00
2023-11-13T10:51:51.651Z,181.00
2023-11-13T10:51:52.640Z,183.00
2023-11-13T10:51:53.664Z,182.00
2023-11-13T10:51:54.659Z,187.00
2023-11-13T10:51:55.641Z,179.00
2023-11-13T10:51:56.669Z,189.00
2023-11-13T10:51:57.653Z,181.00
2023-11-13T10:56:40.407Z,187.00
2023-11-13T10:56:41.424Z,187.00
2023-11-13T10:56:42.414Z,188.00
2023-11-13T10:56:43.404Z,188.00
2023-11-13T10:56:44.412Z,179.00
2023-11-13T10:56:45.420Z,187.00
2023-11-13T10:56:46.407Z,184.00
2023-11-13T10:56:47.398Z,188.00
2023-11-13T10:56:48.419Z,180.00
2023-11-13T10:56:49.408Z,182.00
2023-11-13T10:56:50.396Z,181.00
2023-11-13T10:56:51.386Z,189.00
2023-11-13T10:56:52.410Z,181.00
2023-11-13T10:56:53.399Z,188.00
2023-11-13T10:56:54.385Z,179.00
2023-11-13T10:56:55.410Z,188.00
2023-11-13T10:56:56.396Z,182.00
2023-11-13T10:56:57.387Z,186.00
2023-11-13T10:56:58.411Z,187.00
2023-11-13T10:56:59.399Z,185.00
2023-11-13T10:57:00.392Z,184.00
2023-11-13T10:57:01.411Z,184.00
2023-11-13T10:57:02.398Z,178.00
2023-11-13T10:57:03.387Z,180.00
2023-11-13T10:57:04.377Z,188.00
2023-11-13T10:57:05.399Z,184.00
2023-11-13T10:57:06.388Z,181.00
2023-11-13T10:57:07.378Z,180.00
2023-11-13T10:57:08.367Z,26.00
2023-11-13T10:57:09.391Z,8.00
2023-11-13T10:57:10.377Z,8.00
2023-11-13T10:57:11.367Z,8.00
2023-11-13T10:57:12.394Z,8.00
2023-11-13T10:57:13.379Z,8.00
2023-11-13T10:57:14.367Z,8.00
2023-11-13T10:57:15.356Z,8.00
2023-11-13T10:57:16.380Z,8.00
2023-11-13T10:57:17.369Z,8.00
2023-11-13T10:57:18.358Z,2.00
2023-11-13T10:57:19.377Z,400.00
2023-11-13T10:57:20.401Z,400.00
2023-11-13T10:57:21.388Z,400.00
2023-11-13T10:57:22.391Z,27.00
2023-11-13T10:57:23.367Z,17.00
2023-11-13T10:57:24.357Z,7.00
2023-11-13T10:57:25.381Z,8.00
2023-11-13T10:57:26.367Z,8.00
2023-11-13T10:57:27.358Z,13.00
2023-11-13T10:57:28.380Z,8.00
2023-11-13T10:57:29.369Z,8.00
2023-11-13T10:57:30.359Z,7.00
2023-11-13T10:57:31.391Z,8.00
2023-11-13T10:57:32.370Z,8.00
2023-11-13T10:57:33.358Z,8.00
2023-11-13T10:57:34.382Z,8.00
2023-11-13T10:57:35.370Z,8.00
2023-11-13T10:57:36.359Z,8.00
2023-11-13T10:58:54.332Z,6.00
2023-11-13T10:58:55.319Z,6.00
2023-11-13T10:58:56.309Z,6.00
2023-11-13T15:26:50.910Z,16.00
2023-11-13T15:26:50.910Z,16.00
2023-11-13T15:26:50.910Z,16.00
2023-11-13T15:26:51.895Z,16.00
2023-11-13T15:26:51.895Z,16.00
2023-11-13T15:26:51.895Z,16.00
2023-11-13T15:26:52.883Z,16.00
2023-11-13T15:26:52.883Z,16.00
2023-11-13T15:26:52.883Z,16.00
2023-11-13T15:26:53.902Z,16.00
2023-11-13T15:26:53.902Z,16.00
2023-11-13T15:26:53.902Z,16.00
2023-11-13T15:26:54.904Z,16.00
2023-11-13T15:26:54.904Z,16.00
2023-11-13T15:26:54.904Z,16.00
2023-11-13T15:26:55.883Z,16.00
2023-11-13T15:26:55.883Z,16.00
2023-11-13T15:26:55.883Z,16.00
2023-11-13T15:26:56.904Z,16.00
2023-11-13T15:26:56.904Z,16.00
2023-11-13T15:26:56.904Z,16.00
2023-11-13T15:26:57.894Z,16.00
2023-11-13T15:26:57.894Z,16.00
2023-11-13T15:26:57.894Z,16.00
2023-11-13T15:26:58.945Z,16.00
2023-11-13T15:26:58.945Z,16.00
2023-11-13T15:26:58.945Z,16.00
2023-11-13T15:26:59.903Z,16.00
2023-11-13T15:26:59.903Z,16.00
2023-11-13T15:26:59.903Z,16.00
2023-11-13T15:27:00.894Z,16.00
2023-11-13T15:27:00.894Z,16.00
2023-11-13T15:27:00.894Z,16.00
2023-11-13T15:27:01.914Z,16.00
2023-11-13T15:27:01.914Z,16.00
2023-11-13T15:27:01.914Z,16.00
2023-11-13T15:27:07.914Z,16.00
2023-11-13T15:27:07.914Z,16.00
2023-11-13T15:27:07.914Z,16.00
2023-11-13T15:27:08.904Z,16.00
2023-11-13T15:27:08.904Z,16.00
2023-11-13T15:27:08.904Z,16.00
2023-11-13T15:27:09.902Z,16.00
2023-11-13T15:27:09.902Z,16.00
2023-11-13T15:27:09.902Z,16.00
2023-11-13T15:27:10.913Z,16.00
2023-11-13T15:27:10.913Z,16.00
2023-11-13T15:27:10.913Z,16.00
2023-11-13T15:27:11.902Z,16.00
2023-11-13T15:27:11.902Z,16.00
2023-11-13T15:27:11.902Z,16.00
2023-11-13T15:27:12.894Z,16.00
2023-11-13T15:27:12.894Z,16.00
2023-11-13T15:27:12.894Z,16.00
2023-11-13T15:27:13.915Z,16.00
2023-11-13T15:27:13.915Z,16.00
2023-11-13T15:27:13.915Z,16.00
2023-11-13T15:27:14.906Z,16.00
2023-11-13T15:27:14.906Z,16.00
2023-11-13T15:27:14.906Z,16.00
2023-11-13T15:27:15.894Z,16.00
2023-11-13T15:27:15.894Z,16.00
2023-11-13T15:27:15.894Z,16.00
2023-11-13T15:27:16.914Z,16.00
2023-11-13T15:27:16.914Z,16.00
2023-11-13T15:27:16.914Z,16.00
2023-11-13T15:27:17.904Z,16.00
2023-11-13T15:27:17.904Z,16.00
2023-11-13T15:27:17.904Z,16.00
2023-11-13T15:27:18.895Z,16.00
2023-11-13T15:27:18.895Z,16.00
2023-11-13T15:27:18.895Z,16.00
2023-11-13T15:27:19.920Z,16.00
2023-11-13T15:27:19.920Z,16.00
2023-11-13T15:27:19.920Z,16.00
2023-11-13T15:27:20.905Z,16.00
2023-11-13T15:27:20.905Z,16.00
2023-11-13T15:27:20.905Z,16.00
2023-11-13T15:27:21.894Z,16.00
2023-11-13T15:27:21.894Z,16.00
2023-11-13T15:27:21.894Z,16.00
2023-11-13T15:27:22.915Z,16.00
2023-11-13T15:27:22.915Z,16.00
2023-11-13T15:27:22.915Z,16.00
2023-11-13T15:27:23.905Z,16.00
2023-11-13T15:27:23.905Z,16.00
2023-11-13T15:27:23.905Z,16.00
2023-11-13T15:27:24.895Z,16.00
2023-11-13T15:27:24.895Z,16.00
2023-11-13T15:27:24.895Z,16.00
2023-11-13T15:27:25.915Z,16.00
2023-11-13T15:27:25.915Z,16.00
2023-11-13T15:27:25.915Z,16.00
2023-11-13T15:27:26.905Z,16.00
2023-11-13T15:27:26.905Z,16.00
2023-11-13T15:27:26.905Z,16.00
2023-11-13T15:27:27.894Z,16.00
2023-11-13T15:27:27.894Z,16.00
2023-11-13T15:27:27.894Z,16.00
2023-11-13T15:27:28.916Z,16.00
2023-11-13T15:27:28.916Z,16.00
2023-11-13T15:27:28.916Z,16.00
2023-11-13T15:27:29.906Z,16.00
2023-11-13T15:27:29.906Z,16.00
2023-11-13T15:27:29.906Z,16.00
2023-11-13T15:27:30.894Z,16.00
2023-11-13T15:27:30.894Z,16.00
2023-11-13T15:27:30.894Z,16.00
2023-11-13T15:27:31.915Z,16.00
2023-11-13T15:27:31.915Z,16.00
2023-11-13T15:27:31.915Z,16.00
2023-11-13T15:27:32.906Z,16.00
2023-11-13T15:27:32.906Z,16.00
2023-11-13T15:27:32.906Z,16.00
2023-11-13T15:27:33.902Z,16.00
2023-11-13T15:27:33.902Z,16.00
2023-11-13T15:27:33.902Z,16.00
2023-11-13T15:27:34.916Z,16.00
2023-11-13T15:27:34.916Z,16.00
2023-11-13T15:27:34.916Z,16.00
2023-11-13T15:27:35.907Z,16.00
2023-11-13T15:27:35.907Z,16.00
2023-11-13T15:27:35.907Z,16.00
2023-11-13T15:27:36.895Z,16.00
2023-11-13T15:27:36.895Z,16.00
2023-11-13T15:27:36.895Z,16.00
2023-11-13T15:27:37.916Z,16.00
2023-11-13T15:27:37.916Z,16.00
2023-11-13T15:27:37.916Z,16.00
2023-11-13T15:27:38.913Z,16.00
2023-11-13T15:27:38.913Z,16.00
2023-11-13T15:27:38.913Z,16.00
2023-11-13T15:27:39.895Z,16.00
2023-11-13T15:27:39.895Z,16.00
2023-11-13T15:27:39.895Z,16.00
2023-11-13T15:27:40.923Z,16.00
2023-11-13T15:27:40.923Z,16.00
2023-11-13T15:27:40.923Z,16.00
2023-11-13T15:27:41.906Z,16.00
2023-11-13T15:27:41.906Z,16.00
2023-11-13T15:27:41.906Z,16.00
2023-11-13T15:27:42.895Z,16.00
2023-11-13T15:27:42.895Z,16.00
2023-11-13T15:27:42.895Z,16.00
2023-11-13T15:27:43.918Z,16.00
2023-11-13T15:27:43.918Z,16.00
2023-11-13T15:27:43.918Z,16.00
2023-11-13T15:27:44.912Z,16.00
2023-11-13T15:27:44.912Z,16.00
2023-11-13T15:27:44.912Z,16.00
2023-11-13T15:27:45.894Z,16.00
2023-11-13T15:27:45.894Z,16.00
2023-11-13T15:27:45.894Z,16.00
2023-11-13T15:27:46.916Z,16.00
2023-11-13T15:27:46.916Z,16.00
2023-11-13T15:27:46.916Z,16.00
2023-11-13T15:27:47.906Z,16.00
2023-11-13T15:27:47.906Z,16.00
2023-11-13T15:27:47.906Z,16.00
2023-11-13T15:27:48.895Z,16.00
2023-11-13T15:27:48.895Z,16.00
2023-11-13T15:27:48.895Z,16.00
2023-11-13T15:27:49.917Z,16.00
2023-11-13T15:27:49.917Z,16.00
2023-11-13T15:27:49.917Z,16.00
2023-11-13T15:27:50.906Z,16.00
2023-11-13T15:27:50.906Z,16.00
2023-11-13T15:27:50.906Z,16.00
2023-11-13T15:27:51.895Z,16.00
2023-11-13T15:27:51.895Z,16.00
2023-11-13T15:27:51.895Z,16.00
2023-11-13T15:27:52.916Z,16.00
2023-11-13T15:27:52.916Z,16.00
2023-11-13T15:27:52.916Z,16.00
2023-11-13T15:27:53.937Z,16.00
2023-11-13T15:27:53.937Z,16.00
2023-11-13T15:27:53.937Z,16.00
2023-11-13T15:27:54.895Z,16.00
2023-11-13T15:27:54.895Z,16.00
2023-11-13T15:27:54.895Z,16.00
2023-11-13T15:27:55.918Z,16.00
2023-11-13T15:27:55.918Z,16.00
2023-11-13T15:27:55.918Z,16.00
2023-11-13T15:27:56.912Z,16.00
2023-11-13T15:27:56.912Z,16.00
2023-11-13T15:27:56.912Z,16.00
2023-11-13T15:27:57.926Z,16.00
2023-11-13T15:27:57.926Z,16.00
2023-11-13T15:27:57.926Z,16.00
2023-11-13T15:27:58.916Z,16.00
2023-11-13T15:27:58.916Z,16.00
2023-11-13T15:27:58.916Z,16.00
2023-11-13T15:27:59.904Z,15.00
2023-11-13T15:27:59.904Z,15.00
2023-11-13T15:27:59.904Z,15.00
2023-11-13T15:28:00.926Z,15.00
2023-11-13T15:28:00.926Z,15.00
2023-11-13T15:28:00.926Z,15.00
2023-11-13T15:28:01.915Z,15.00
2023-11-13T15:28:01.915Z,15.00
2023-11-13T15:28:01.915Z,15.00
2023-11-13T15:28:02.906Z,15.00
2023-11-13T15:28:02.906Z,15.00
2023-11-13T15:28:02.906Z,15.00
2023-11-13T15:28:03.933Z,16.00
2023-11-13T15:28:03.933Z,16.00
2023-11-13T15:28:03.933Z,16.00
2023-11-13T15:28:04.916Z,15.00
2023-11-13T15:28:04.916Z,15.00
2023-11-13T15:28:04.916Z,15.00
2023-11-13T15:28:05.910Z,16.00
2023-11-13T15:28:05.910Z,16.00
2023-11-13T15:28:05.910Z,16.00
2023-11-13T15:28:06.927Z,16.00
2023-11-13T15:28:06.927Z,16.00
2023-11-13T15:28:06.927Z,16.00
2023-11-13T15:28:07.916Z,16.00
2023-11-13T15:28:07.916Z,16.00
2023-11-13T15:28:07.916Z,16.00
2023-11-13T15:28:08.906Z,16.00
2023-11-13T15:28:08.906Z,16.00
2023-11-13T15:28:08.906Z,16.00
2023-11-13T15:28:09.927Z,16.00
2023-11-13T15:28:09.927Z,16.00
2023-11-13T15:28:09.927Z,16.00
2023-11-13T15:28:10.916Z,16.00
2023-11-13T15:28:10.916Z,16.00
2023-11-13T15:28:10.916Z,16.00
2023-11-13T15:28:11.907Z,16.00
2023-11-13T15:28:11.907Z,16.00
2023-11-13T15:28:11.907Z,16.00
2023-11-13T15:28:12.927Z,16.00
2023-11-13T15:28:12.927Z,16.00
2023-11-13T15:28:12.927Z,16.00
2023-11-13T15:28:13.920Z,16.00
2023-11-13T15:28:13.920Z,16.00
2023-11-13T15:28:13.920Z,16.00
2023-11-13T15:28:14.906Z,16.00
2023-11-13T15:28:14.906Z,16.00
2023-11-13T15:28:14.906Z,16.00
2023-11-13T15:28:15.928Z,16.00
2023-11-13T15:28:15.928Z,16.00
2023-11-13T15:28:15.928Z,16.00
2023-11-13T15:28:16.916Z,16.00
2023-11-13T15:28:16.916Z,16.00
2023-11-13T15:28:16.916Z,16.00
2023-11-13T15:28:17.909Z,15.00
2023-11-13T15:28:17.909Z,15.00
2023-11-13T15:28:18.937Z,16.00
2023-11-13T15:28:18.937Z,16.00
2023-11-13T15:28:19.916Z,16.00
2023-11-13T15:28:19.916Z,16.00
2023-11-13T15:28:20.906Z,16.00
2023-11-13T15:28:20.906Z,16.00
2023-11-13T15:28:21.927Z,16.00
2023-11-13T15:28:21.927Z,16.00
2023-11-13T15:28:22.923Z,16.00
2023-11-13T15:28:22.923Z,16.00
2023-11-13T15:28:23.912Z,16.00
2023-11-13T15:28:23.912Z,16.00
2023-11-13T15:28:24.927Z,15.00
2023-11-13T15:28:24.927Z,15.00
2023-11-13T15:28:25.917Z,15.00
2023-11-13T15:28:25.917Z,15.00
2023-11-13T15:28:26.906Z,16.00
2023-11-13T15:28:26.906Z,16.00
2023-11-13T15:28:27.927Z,16.00
2023-11-13T15:28:28.916Z,16.00
2023-11-13T15:28:29.907Z,16.00
2023-11-13T15:28:30.927Z,15.00
2023-11-13T15:28:31.919Z,16.00
2023-11-13T15:28:32.936Z,15.00
2023-11-13T15:28:33.928Z,15.00
2023-11-13T15:28:34.924Z,15.00
2023-11-13T15:28:35.945Z,16.00
2023-11-13T15:28:36.958Z,16.00
2023-11-13T15:28:37.928Z,16.00
2023-11-13T15:28:38.938Z,16.00
2023-11-13T15:28:39.934Z,15.00
2023-11-13T15:28:40.948Z,16.00
2023-11-13T15:28:41.938Z,15.00
2023-11-13T15:28:42.927Z,16.00
2023-11-13T15:28:43.917Z,16.00
2023-11-13T15:29:31.949Z,16.00
2023-11-13T15:29:32.938Z,16.00
2023-11-13T15:29:33.928Z,16.00
2023-11-13T15:29:34.957Z,16.00
2023-11-13T15:29:35.945Z,16.00
2023-11-13T15:29:36.928Z,15.00
2023-11-13T15:29:37.949Z,15.00
2023-11-13T15:29:38.946Z,16.00
2023-11-13T15:29:38.946Z,16.00
2023-11-13T15:29:39.936Z,16.00
2023-11-13T15:29:39.936Z,16.00
2023-11-13T15:29:40.949Z,16.00
2023-11-13T15:29:40.949Z,16.00
2023-11-13T15:29:41.938Z,16.00